Time;durP1;ratioP1;P1;durP2;ratioP2;P2;SDS_P1;SDS_P2;PMS_P1;PMS_P2;Temp;Humidity;BMP_temperature;BMP_pressure;BME280_temperature;BME280_humidity;BME280_pressure;Samples;Min_cycle;Max_cycle;Signal;HPM_P1;HPM_P2
2023/09/04 00:02:30;;;;;;;6.63;5.07;;;17.10;99.90;;;;;;6256558;28;20121;-79
2023/09/04 00:05:35;;;;;;;8.25;4.82;;;17.00;99.90;;;;;;6257916;28;20056;-79
2023/09/04 00:08:37;;;;;;;6.10;4.30;;;17.00;99.90;;;;;;6255566;28;20119;-77
2023/09/04 00:11:38;;;;;;;8.32;4.55;;;17.00;99.90;;;;;;6256211;28;20053;-78
2023/09/04 00:14:40;;;;;;;4.43;3.67;;;17.00;99.90;;;;;;6246552;28;20046;-77
2023/09/04 00:17:42;;;;;;;7.80;5.35;;;17.00;99.90;;;;;;6243366;28;20049;-77
2023/09/04 00:20:45;;;;;;;5.50;4.18;;;16.90;99.90;;;;;;6252703;28;20467;-78
2023/09/04 00:23:46;;;;;;;4.72;4.15;;;16.90;99.90;;;;;;6254604;28;20515;-76
2023/09/04 00:26:48;;;;;;;5.68;4.72;;;16.80;99.90;;;;;;6253438;28;20049;-78
2023/09/04 00:29:50;;;;;;;6.28;5.20;;;16.80;99.90;;;;;;6253791;28;20503;-79
2023/09/04 00:32:52;;;;;;;8.13;5.15;;;16.80;99.90;;;;;;6253620;28;20721;-79
2023/09/04 00:35:55;;;;;;;6.70;4.65;;;16.80;99.90;;;;;;6254854;28;20061;-77
2023/09/04 00:38:56;;;;;;;4.80;4.00;;;16.80;99.90;;;;;;6255935;28;20299;-78
2023/09/04 00:41:58;;;;;;;4.35;3.67;;;16.80;99.90;;;;;;6255566;28;20415;-77
2023/09/04 00:45:00;;;;;;;4.90;4.28;;;16.80;99.90;;;;;;6254085;28;20056;-77
2023/09/04 00:48:03;;;;;;;6.32;4.22;;;16.70;99.90;;;;;;6253146;28;20052;-79
2023/09/04 00:51:07;;;;;;;6.43;4.60;;;16.70;99.90;;;;;;6254263;28;20056;-78
2023/09/04 00:54:09;;;;;;;6.97;4.40;;;16.70;99.90;;;;;;6253825;28;20049;-79
2023/09/04 00:57:12;;;;;;;4.85;4.05;;;16.70;99.90;;;;;;6252343;28;20041;-78
2023/09/04 01:00:15;;;;;;;7.38;4.45;;;16.70;99.90;;;;;;6252517;28;20057;-78
2023/09/04 01:03:17;;;;;;;5.20;4.22;;;16.70;99.90;;;;;;6253410;28;20128;-78
2023/09/04 01:06:20;;;;;;;7.30;3.75;;;16.70;99.90;;;;;;6257206;28;20049;-78
2023/09/04 01:09:22;;;;;;;5.90;3.53;;;16.70;99.90;;;;;;6256864;28;20049;-77
2023/09/04 01:12:30;;;;;;;5.57;4.57;;;16.70;99.90;;;;;;6257918;28;20045;-77
2023/09/04 01:15:32;;;;;;;4.40;3.20;;;16.70;99.90;;;;;;6261570;28;20056;-79
2023/09/04 01:18:35;;;;;;;5.15;4.50;;;16.70;99.90;;;;;;6261874;28;20045;-78
2023/09/04 01:21:39;;;;;;;5.80;3.65;;;16.70;99.90;;;;;;6262990;28;20099;-79
2023/09/04 01:24:40;;;;;;;5.82;4.80;;;16.70;99.90;;;;;;6269201;28;20048;-76
2023/09/04 01:27:47;;;;;;;5.38;4.75;;;16.70;99.90;;;;;;6256404;28;20049;-78
2023/09/04 01:30:56;;;;;;;5.53;4.10;;;16.60;99.90;;;;;;6256649;28;20456;-79
2023/09/04 01:34:03;;;;;;;7.38;4.97;;;16.60;99.90;;;;;;6257166;28;20049;-78
2023/09/04 01:37:06;;;;;;;5.22;4.07;;;16.60;99.90;;;;;;6257622;28;20045;-78
2023/09/04 01:40:08;;;;;;;4.45;3.42;;;16.60;99.90;;;;;;6257887;28;20113;-79
2023/09/04 01:43:11;;;;;;;5.15;4.35;;;16.60;99.90;;;;;;6257413;28;20056;-79
2023/09/04 01:46:13;;;;;;;4.90;4.05;;;16.70;99.90;;;;;;6249615;28;20053;-78
2023/09/04 01:49:14;;;;;;;5.68;4.22;;;16.60;99.90;;;;;;6257275;28;20053;-79
2023/09/04 01:52:17;;;;;;;3.10;2.80;;;16.60;99.90;;;;;;6256887;28;20037;-78
2023/09/04 01:55:19;;;;;;;4.07;3.15;;;16.60;99.90;;;;;;6258034;28;20053;-78
2023/09/04 01:58:21;;;;;;;3.78;3.47;;;16.60;99.90;;;;;;6257077;28;20060;-77
2023/09/04 02:01:22;;;;;;;5.38;3.20;;;16.60;99.90;;;;;;6257041;28;20045;-78
2023/09/04 02:04:24;;;;;;;5.03;4.57;;;16.60;99.90;;;;;;6259366;28;20055;-77
2023/09/04 02:07:27;;;;;;;6.75;4.20;;;16.60;99.90;;;;;;6259479;28;20053;-79
2023/09/04 02:10:29;;;;;;;4.35;3.95;;;16.50;99.90;;;;;;6257996;28;20064;-78
2023/09/04 02:13:30;;;;;;;5.43;4.35;;;16.50;99.90;;;;;;6258827;28;20045;-78
2023/09/04 02:16:32;;;;;;;5.25;4.00;;;16.50;99.90;;;;;;6257771;28;20048;-77
2023/09/04 02:19:36;;;;;;;4.43;3.42;;;16.50;99.90;;;;;;6258318;28;20049;-79
2023/09/04 02:22:39;;;;;;;4.55;3.38;;;16.50;99.90;;;;;;6257941;28;20045;-78
2023/09/04 02:25:40;;;;;;;5.82;5.25;;;16.50;99.90;;;;;;6258593;28;20049;-78
2023/09/04 02:28:42;;;;;;;6.22;3.45;;;16.50;99.90;;;;;;6257304;28;20041;-78
2023/09/04 02:31:44;;;;;;;6.05;4.03;;;16.50;99.90;;;;;;6257569;28;20069;-77
2023/09/04 02:34:46;;;;;;;4.15;3.58;;;16.50;99.90;;;;;;6256402;28;20042;-77
2023/09/04 02:37:49;;;;;;;5.03;4.50;;;16.50;99.90;;;;;;6257074;28;20056;-78
2023/09/04 02:40:50;;;;;;;6.60;5.70;;;16.40;99.90;;;;;;6256365;28;20041;-79
2023/09/04 02:43:53;;;;;;;5.65;3.92;;;16.40;99.90;;;;;;6256489;28;20060;-77
2023/09/04 02:46:55;;;;;;;4.10;3.50;;;16.40;99.90;;;;;;6256328;28;20053;-79
2023/09/04 02:49:56;;;;;;;5.18;3.90;;;16.40;99.90;;;;;;6255112;28;20049;-75
2023/09/04 02:52:59;;;;;;;6.78;4.78;;;16.40;99.90;;;;;;6256684;28;20045;-78
2023/09/04 02:56:01;;;;;;;8.57;3.92;;;16.40;99.90;;;;;;6256293;28;20045;-78
2023/09/04 02:59:03;;;;;;;5.28;3.00;;;16.40;99.90;;;;;;6258058;28;20401;-77
2023/09/04 03:02:05;;;;;;;4.78;3.78;;;16.40;99.90;;;;;;6256466;28;20060;-76
2023/09/04 03:05:08;;;;;;;4.82;4.07;;;16.30;99.90;;;;;;6256315;28;20256;-77
2023/09/04 03:08:11;;;;;;;5.03;4.53;;;16.30;99.90;;;;;;6256010;28;20047;-78
2023/09/04 03:11:13;;;;;;;5.50;3.80;;;16.30;99.90;;;;;;6256904;28;20053;-77
2023/09/04 03:14:15;;;;;;;5.72;4.13;;;16.30;99.90;;;;;;6256431;28;20052;-79
2023/09/04 03:17:17;;;;;;;4.45;4.03;;;16.20;99.90;;;;;;6257087;28;20052;-78
2023/09/04 03:20:19;;;;;;;4.85;4.03;;;16.20;99.90;;;;;;6256905;28;20056;-78
2023/09/04 03:23:22;;;;;;;5.15;4.47;;;16.20;99.90;;;;;;6256321;28;20081;-79
2023/09/04 03:26:24;;;;;;;4.68;3.85;;;16.20;99.90;;;;;;6257030;28;20045;-78
2023/09/04 03:29:27;;;;;;;4.45;4.00;;;16.20;99.90;;;;;;6256677;28;20053;-76
2023/09/04 03:32:29;;;;;;;6.22;4.50;;;16.20;99.90;;;;;;6257318;28;20045;-77
2023/09/04 03:35:30;;;;;;;4.50;3.50;;;16.20;99.90;;;;;;6257648;28;20051;-76
2023/09/04 03:38:33;;;;;;;4.68;4.00;;;16.10;99.90;;;;;;6256298;28;20055;-78
2023/09/04 03:41:35;;;;;;;6.93;5.13;;;16.10;99.90;;;;;;6254421;28;20409;-77
2023/09/04 03:44:37;;;;;;;4.22;3.83;;;16.10;99.90;;;;;;6256131;28;20057;-76
2023/09/04 03:47:38;;;;;;;4.95;4.38;;;16.10;99.90;;;;;;6256107;28;20053;-79
2023/09/04 03:50:40;;;;;;;6.95;6.07;;;16.10;99.90;;;;;;6256999;28;20049;-78
2023/09/04 03:53:43;;;;;;;4.90;4.25;;;16.00;99.90;;;;;;6256680;28;20041;-79
2023/09/04 03:56:45;;;;;;;5.50;4.43;;;16.00;99.90;;;;;;6255845;28;20045;-77
2023/09/04 03:59:46;;;;;;;6.65;4.82;;;16.00;99.90;;;;;;6255917;28;20045;-77
2023/09/04 04:02:51;;;;;;;6.15;5.55;;;15.90;99.90;;;;;;6256089;28;20053;-77
2023/09/04 04:05:52;;;;;;;4.38;3.80;;;15.90;99.90;;;;;;6257441;28;20065;-77
2023/09/04 04:08:55;;;;;;;9.98;3.95;;;15.90;99.90;;;;;;6256617;28;20508;-78
2023/09/04 04:11:57;;;;;;;5.38;3.92;;;15.90;99.90;;;;;;6256405;28;20052;-77
2023/09/04 04:15:00;;;;;;;8.90;5.00;;;15.80;99.90;;;;;;6254548;28;20143;-78
2023/09/04 04:18:01;;;;;;;6.93;3.97;;;15.80;99.90;;;;;;6254418;28;20081;-78
2023/09/04 04:21:04;;;;;;;4.47;3.50;;;15.80;99.90;;;;;;6255043;28;20052;-78
2023/09/04 04:24:07;;;;;;;8.07;4.35;;;15.80;99.90;;;;;;6254293;28;20113;-78
2023/09/04 04:27:09;;;;;;;5.68;4.07;;;15.80;99.90;;;;;;6256421;28;20053;-78
2023/09/04 04:30:12;;;;;;;5.05;4.55;;;15.70;99.90;;;;;;6254600;28;20046;-78
2023/09/04 04:33:14;;;;;;;5.97;5.18;;;15.60;99.90;;;;;;6254947;28;20053;-78
2023/09/04 04:36:16;;;;;;;5.35;4.32;;;15.60;99.90;;;;;;6253527;28;20041;-78
2023/09/04 04:39:19;;;;;;;6.18;4.43;;;15.60;99.90;;;;;;6253746;28;20350;-77
2023/09/04 04:42:21;;;;;;;5.50;4.60;;;15.60;99.90;;;;;;6253343;28;20516;-78
2023/09/04 04:45:22;;;;;;;12.32;4.38;;;15.50;99.90;;;;;;6253581;28;20046;-78
2023/09/04 04:48:24;;;;;;;5.47;4.45;;;15.50;99.90;;;;;;6253039;28;20045;-78
2023/09/04 04:51:25;;;;;;;5.30;4.80;;;15.50;99.90;;;;;;6251587;28;20049;-78
2023/09/04 04:54:28;;;;;;;4.82;4.43;;;15.50;99.90;;;;;;6251980;28;20046;-78
2023/09/04 04:57:30;;;;;;;4.70;4.03;;;15.50;99.90;;;;;;6252647;28;20096;-76
2023/09/04 05:00:32;;;;;;;6.00;3.78;;;15.50;99.90;;;;;;6251690;28;20045;-78
2023/09/04 05:03:33;;;;;;;6.72;4.93;;;15.60;99.90;;;;;;6254028;28;20061;-78
2023/09/04 05:06:35;;;;;;;4.97;4.47;;;15.60;99.90;;;;;;6254056;28;20045;-77
2023/09/04 05:09:38;;;;;;;7.03;4.28;;;15.70;99.90;;;;;;6254968;28;20060;-78
2023/09/04 05:12:40;;;;;;;5.90;5.03;;;15.70;99.90;;;;;;6252708;28;20049;-77
2023/09/04 05:15:41;;;;;;;10.15;4.28;;;15.80;99.90;;;;;;6252132;28;20053;-78
2023/09/04 05:18:43;;;;;;;5.53;4.20;;;15.80;99.90;;;;;;6252849;28;20050;-79
2023/09/04 05:21:45;;;;;;;4.38;3.47;;;15.90;99.90;;;;;;6253254;28;20041;-78
2023/09/04 05:24:48;;;;;;;5.53;4.03;;;16.00;99.90;;;;;;6254219;28;20044;-77
2023/09/04 05:27:50;;;;;;;4.85;3.95;;;16.10;99.90;;;;;;6254928;28;20049;-79
2023/09/04 05:30:51;;;;;;;5.00;4.50;;;16.20;99.90;;;;;;6255734;28;20053;-78
2023/09/04 05:33:53;;;;;;;4.53;3.95;;;16.30;99.90;;;;;;6255457;28;20046;-79
2023/09/04 05:36:57;;;;;;;4.82;4.15;;;16.40;99.90;;;;;;6255902;28;20088;-79
2023/09/04 05:40:00;;;;;;;5.95;3.70;;;16.50;99.90;;;;;;6254470;28;20056;-79
2023/09/04 05:43:01;;;;;;;5.80;4.70;;;16.60;99.90;;;;;;6253429;28;20054;-79
2023/09/04 05:46:03;;;;;;;4.68;3.40;;;16.70;99.90;;;;;;6243214;28;20057;-79
2023/09/04 05:49:05;;;;;;;5.93;4.60;;;16.80;99.90;;;;;;6251475;28;20050;-80
2023/09/04 05:52:07;;;;;;;6.00;3.08;;;17.00;99.90;;;;;;6258461;28;20041;-80
2023/09/04 05:55:10;;;;;;;4.82;4.15;;;17.10;99.90;;;;;;6257109;28;20053;-80
2023/09/04 05:58:12;;;;;;;7.95;4.35;;;17.40;99.90;;;;;;6258891;28;20057;-79
2023/09/04 06:01:15;;;;;;;5.25;3.05;;;17.50;99.90;;;;;;6258919;28;20046;-78
2023/09/04 06:04:16;;;;;;;8.82;4.00;;;17.70;99.90;;;;;;6258922;28;20049;-78
2023/09/04 06:07:18;;;;;;;4.00;3.03;;;17.80;99.90;;;;;;6259233;28;20065;-79
2023/09/04 06:10:21;;;;;;;5.70;3.22;;;18.10;99.90;;;;;;6258318;28;20046;-80
2023/09/04 06:13:23;;;;;;;2.95;2.60;;;18.40;99.90;;;;;;6257744;28;20053;-78
2023/09/04 06:16:25;;;;;;;3.70;3.20;;;18.60;99.90;;;;;;6259836;28;20051;-80
2023/09/04 06:19:27;;;;;;;4.50;3.22;;;18.90;99.90;;;;;;6259132;28;20045;-80
2023/09/04 06:22:29;;;;;;;6.10;3.60;;;19.20;99.90;;;;;;6258511;28;20580;-79
2023/09/04 06:25:32;;;;;;;3.10;2.50;;;19.70;99.90;;;;;;6258048;28;20125;-77
2023/09/04 06:28:34;;;;;;;4.03;3.67;;;20.50;99.90;;;;;;6256989;28;20042;-78
2023/09/04 06:31:35;;;;;;;3.03;2.72;;;21.30;99.90;;;;;;6257689;28;20053;-79
2023/09/04 06:34:37;;;;;;;2.83;2.25;;;21.80;99.90;;;;;;6259294;28;20046;-79
2023/09/04 06:37:40;;;;;;;3.95;2.65;;;21.90;99.90;;;;;;6258454;28;20050;-77
2023/09/04 06:40:43;;;;;;;2.90;2.33;;;21.80;99.90;;;;;;6258042;28;20041;-78
2023/09/04 06:43:45;;;;;;;3.88;2.95;;;21.60;99.90;;;;;;6257496;28;20046;-79
2023/09/04 06:46:46;;;;;;;2.80;2.47;;;21.40;99.90;;;;;;6257988;28;20485;-78
2023/09/04 06:49:48;;;;;;;4.47;3.80;;;21.20;99.90;;;;;;6258625;28;20052;-79
2023/09/04 06:52:50;;;;;;;3.13;2.80;;;21.10;99.90;;;;;;6258715;28;20500;-79
2023/09/04 06:55:53;;;;;;;3.13;2.83;;;21.10;99.90;;;;;;6257975;28;20050;-79
2023/09/04 06:58:55;;;;;;;3.05;2.53;;;21.20;99.90;;;;;;6257164;28;20522;-78
2023/09/04 07:01:57;;;;;;;2.88;2.65;;;21.30;99.90;;;;;;6254911;28;20413;-79
2023/09/04 07:04:59;;;;;;;4.05;2.13;;;21.40;99.90;;;;;;6257412;28;20049;-80
2023/09/04 07:08:00;;;;;;;2.42;2.22;;;21.60;99.90;;;;;;6242071;28;20058;-79
2023/09/04 07:11:03;;;;;;;2.42;1.95;;;21.70;99.90;;;;;;6263504;28;20046;-80
2023/09/04 07:14:06;;;;;;;3.72;3.42;;;21.80;99.90;;;;;;6254106;28;20535;-78
2023/09/04 07:17:08;;;;;;;3.65;3.35;;;22.00;99.90;;;;;;6251003;28;20044;-79
2023/09/04 07:20:11;;;;;;;2.90;2.60;;;22.20;99.90;;;;;;6251228;28;20532;-78
2023/09/04 07:23:12;;;;;;;5.70;2.55;;;22.40;99.90;;;;;;6252962;28;20049;-79
2023/09/04 07:26:15;;;;;;;4.25;2.92;;;22.50;99.90;;;;;;6251840;28;20053;-78
2023/09/04 07:29:18;;;;;;;3.20;2.55;;;22.60;99.90;;;;;;6250587;28;20048;-78
2023/09/04 07:32:19;;;;;;;3.97;2.30;;;22.80;99.70;;;;;;6251934;28;20045;-79
2023/09/04 07:35:21;;;;;;;2.72;2.53;;;22.80;99.40;;;;;;6253965;28;20416;-79
2023/09/04 07:38:23;;;;;;;3.08;2.75;;;22.90;99.40;;;;;;6247280;28;20786;-77
2023/09/04 07:41:26;;;;;;;2.80;2.42;;;23.20;99.20;;;;;;6237935;28;20503;-76
2023/09/04 07:44:27;;;;;;;3.40;1.83;;;23.40;99.10;;;;;;6252793;28;20519;-77
2023/09/04 07:47:29;;;;;;;3.33;2.22;;;23.70;98.80;;;;;;6250406;28;20042;-79
2023/09/04 07:50:31;;;;;;;3.00;2.55;;;24.10;98.00;;;;;;6249574;28;20053;-79
2023/09/04 07:53:32;;;;;;;5.15;2.78;;;24.40;97.50;;;;;;6250749;28;20049;-78
2023/09/04 07:56:35;;;;;;;4.93;2.00;;;24.80;96.70;;;;;;6250796;28;20052;-79
2023/09/04 07:59:38;;;;;;;2.83;1.98;;;25.30;95.90;;;;;;6250849;28;20045;-78
2023/09/04 08:02:39;;;;;;;2.97;2.45;;;26.00;94.80;;;;;;6250659;28;20049;-78
2023/09/04 08:05:41;;;;;;;2.70;2.50;;;26.50;93.20;;;;;;6241086;28;20042;-79
2023/09/04 08:08:43;;;;;;;4.95;2.38;;;26.90;91.90;;;;;;6232595;28;20046;-79
2023/09/04 08:11:46;;;;;;;3.28;2.97;;;27.30;90.70;;;;;;6243836;28;20445;-78
2023/09/04 08:14:48;;;;;;;3.83;2.65;;;27.70;89.10;;;;;;6249038;28;20486;-78
2023/09/04 08:17:49;;;;;;;2.25;1.80;;;27.70;86.90;;;;;;6249843;28;20053;-79
2023/09/04 08:20:51;;;;;;;2.42;2.08;;;27.60;86.00;;;;;;6248749;28;20056;-79
2023/09/04 08:23:53;;;;;;;5.05;2.47;;;27.60;84.80;;;;;;6251128;28;20144;-78
2023/09/04 08:26:56;;;;;;;5.30;3.08;;;27.20;84.60;;;;;;6250278;28;20052;-78
2023/09/04 08:29:57;;;;;;;2.70;2.42;;;27.00;85.00;;;;;;6248934;28;20045;-79
2023/09/04 08:32:59;;;;;;;3.17;2.42;;;26.60;85.10;;;;;;6251595;28;20054;-80
2023/09/04 08:36:01;;;;;;;3.08;2.70;;;26.40;85.20;;;;;;6248441;28;20081;-80
2023/09/04 08:39:03;;;;;;;3.10;2.53;;;26.30;86.00;;;;;;6248876;28;20528;-80
2023/09/04 08:42:07;;;;;;;2.47;2.17;;;26.30;85.50;;;;;;6248682;28;20056;-80
2023/09/04 08:45:09;;;;;;;2.22;2.00;;;26.30;85.10;;;;;;6249558;28;20096;-80
2023/09/04 08:48:13;;;;;;;3.22;2.92;;;26.20;85.00;;;;;;6249267;28;20048;-77
2023/09/04 08:51:16;;;;;;;2.40;2.20;;;26.20;85.60;;;;;;6249472;28;20060;-79
2023/09/04 08:54:18;;;;;;;2.90;2.40;;;26.40;84.80;;;;;;6249731;28;20099;-79
2023/09/04 08:57:22;;;;;;;2.40;2.17;;;26.30;84.80;;;;;;6250258;28;20068;-79
2023/09/04 09:00:24;;;;;;;3.22;2.78;;;26.40;85.00;;;;;;6249905;28;20037;-79
2023/09/04 09:03:26;;;;;;;2.55;1.80;;;26.50;85.00;;;;;;6245502;28;20053;-79
2023/09/04 09:06:28;;;;;;;2.03;1.85;;;26.50;84.90;;;;;;6247418;28;20049;-79
2023/09/04 09:09:30;;;;;;;3.58;2.63;;;26.70;84.40;;;;;;6249348;28;20053;-80
2023/09/04 09:12:33;;;;;;;3.05;2.00;;;26.70;82.70;;;;;;6249013;28;20068;-79
2023/09/04 09:15:35;;;;;;;3.92;2.05;;;26.50;82.30;;;;;;6250002;28;20056;-79
2023/09/04 09:18:38;;;;;;;5.65;2.25;;;26.70;82.30;;;;;;6249652;28;20416;-80
2023/09/04 09:21:40;;;;;;;2.10;1.70;;;26.70;81.80;;;;;;6249460;28;20057;-80
2023/09/04 09:25:01;;;;;;;2.97;2.10;;;26.70;81.90;;;;;;6249703;28;20057;-79
2023/09/04 09:28:06;;;;;;;3.17;2.35;;;26.80;81.90;;;;;;6253496;28;20056;-80
2023/09/04 09:31:08;;;;;;;2.25;2.05;;;26.90;82.00;;;;;;6254477;28;20056;-79
2023/09/04 09:34:10;;;;;;;3.42;1.88;;;26.90;82.40;;;;;;6254039;28;20160;-79
2023/09/04 09:37:12;;;;;;;4.70;2.15;;;27.20;82.20;;;;;;6253455;28;20059;-80
2023/09/04 09:40:15;;;;;;;4.38;2.65;;;27.40;81.40;;;;;;6253752;28;20048;-77
2023/09/04 09:43:18;;;;;;;2.42;2.20;;;27.40;81.10;;;;;;6253491;28;20061;-79
2023/09/04 09:46:21;;;;;;;3.08;2.63;;;27.50;80.80;;;;;;6252715;28;20042;-79
2023/09/04 09:49:22;;;;;;;2.90;2.25;;;27.70;80.00;;;;;;6244731;28;20053;-79
2023/09/04 09:52:24;;;;;;;3.40;2.92;;;27.90;79.80;;;;;;6253382;28;20046;-80
2023/09/04 09:55:27;;;;;;;2.70;2.00;;;28.10;79.20;;;;;;6253483;28;20057;-78
2023/09/04 09:58:30;;;;;;;2.35;2.15;;;28.20;79.00;;;;;;6252871;28;20076;-79
2023/09/04 10:01:32;;;;;;;4.03;1.83;;;28.30;78.40;;;;;;6260059;28;20528;-77
2023/09/04 10:04:35;;;;;;;3.33;2.05;;;28.50;77.90;;;;;;6262653;28;20045;-77
2023/09/04 10:07:38;;;;;;;3.17;2.03;;;28.50;76.80;;;;;;6265002;28;20052;-78
2023/09/04 10:10:43;;;;;;;4.07;2.30;;;28.50;76.30;;;;;;6265505;28;20049;-78
2023/09/04 10:13:54;;;;;;;3.10;2.80;;;28.60;75.30;;;;;;6260660;28;20049;-78
2023/09/04 10:17:00;;;;;;;4.05;2.58;;;28.80;74.60;;;;;;6259892;28;20048;-78
2023/09/04 10:20:05;;;;;;;3.80;2.47;;;29.00;73.10;;;;;;6258475;28;20041;-78
2023/09/04 10:23:08;;;;;;;3.38;2.47;;;29.00;72.00;;;;;;6258063;28;20134;-79
2023/09/04 10:26:15;;;;;;;3.50;1.98;;;29.10;71.20;;;;;;6251982;28;20052;-79
2023/09/04 10:29:24;;;;;;;6.57;2.10;;;29.20;70.30;;;;;;6251784;28;20064;-79
2023/09/04 10:32:27;;;;;;;2.83;2.30;;;29.30;69.60;;;;;;6251691;28;20037;-78
2023/09/04 10:35:29;;;;;;;3.17;1.98;;;29.40;68.70;;;;;;6253320;28;20417;-78
2023/09/04 10:38:31;;;;;;;1.60;1.50;;;29.30;67.70;;;;;;6251486;28;20053;-80
2023/09/04 10:41:35;;;;;;;3.30;2.08;;;29.30;67.80;;;;;;6251871;28;20046;-79
2023/09/04 10:44:48;;;;;;;3.33;2.53;;;29.40;67.00;;;;;;6252679;28;20627;-79
2023/09/04 10:47:52;;;;;;;2.53;1.95;;;29.40;66.60;;;;;;6253416;28;20129;-79
2023/09/04 10:50:54;;;;;;;3.40;1.70;;;29.20;65.80;;;;;;6253081;28;20061;-79
2023/09/04 10:53:57;;;;;;;5.38;1.85;;;29.10;66.20;;;;;;6252682;28;20057;-79
2023/09/04 10:57:00;;;;;;;5.10;2.00;;;29.20;65.50;;;;;;6252891;28;20042;-78
2023/09/04 11:00:04;;;;;;;2.63;2.38;;;29.30;65.30;;;;;;6252022;28;20191;-79
2023/09/04 11:03:15;;;;;;;2.50;2.22;;;29.40;64.00;;;;;;6253874;28;20053;-79
2023/09/04 11:06:20;;;;;;;2.83;1.90;;;29.40;63.50;;;;;;6252984;28;20042;-79
2023/09/04 11:09:22;;;;;;;2.33;1.90;;;29.60;63.80;;;;;;6252504;28;20049;-79
2023/09/04 11:12:24;;;;;;;3.10;1.90;;;29.80;63.00;;;;;;6252079;28;20084;-80
2023/09/04 11:15:28;;;;;;;4.57;2.50;;;29.70;62.20;;;;;;6239773;28;20053;-77
2023/09/04 11:18:30;;;;;;;3.95;2.33;;;30.00;61.80;;;;;;6250721;28;20049;-78
2023/09/04 11:21:34;;;;;;;3.13;2.15;;;30.30;61.50;;;;;;6249576;28;20056;-78
2023/09/04 11:24:35;;;;;;;2.90;2.15;;;30.40;60.10;;;;;;6249658;28;20049;-79
2023/09/04 11:27:37;;;;;;;2.60;1.77;;;30.40;58.90;;;;;;6241342;28;20045;-77
2023/09/04 11:30:41;;;;;;;3.35;2.40;;;30.40;58.90;;;;;;6246999;28;20052;-78
2023/09/04 11:33:49;;;;;;;2.85;1.80;;;30.60;58.40;;;;;;6248596;28;20504;-77
2023/09/04 11:36:51;;;;;;;2.47;2.13;;;30.50;57.70;;;;;;6247476;28;20041;-78
2023/09/04 11:39:53;;;;;;;4.60;3.00;;;30.60;58.10;;;;;;6248127;28;20053;-77
2023/09/04 11:42:55;;;;;;;2.10;1.90;;;30.90;58.40;;;;;;6236235;28;20049;-78
2023/09/04 11:45:59;;;;;;;1.95;1.65;;;31.30;58.00;;;;;;6246647;28;20056;-77
2023/09/04 11:49:02;;;;;;;3.47;1.90;;;31.60;57.20;;;;;;6243763;28;20049;-79
2023/09/04 11:52:04;;;;;;;2.90;2.30;;;31.70;56.50;;;;;;6251653;28;20045;-78
2023/09/04 11:55:06;;;;;;;2.60;2.00;;;31.60;55.90;;;;;;6251983;28;20046;-78
2023/09/04 11:58:08;;;;;;;2.10;1.65;;;31.50;55.10;;;;;;6244321;28;20052;-77
2023/09/04 12:01:11;;;;;;;2.17;1.70;;;31.50;55.10;;;;;;6243370;28;20041;-77
2023/09/04 12:04:13;;;;;;;3.08;2.20;;;31.50;55.10;;;;;;6245730;28;20393;-78
2023/09/04 12:07:16;;;;;;;2.10;1.90;;;31.70;55.10;;;;;;6246516;28;20543;-78
2023/09/04 12:10:18;;;;;;;2.60;2.38;;;31.80;54.90;;;;;;6244734;28;20501;-77
2023/09/04 12:13:19;;;;;;;7.43;2.60;;;32.00;54.90;;;;;;6245733;28;20424;-78
2023/09/04 12:16:22;;;;;;;2.35;2.15;;;32.20;54.00;;;;;;6247602;28;20052;-78
2023/09/04 12:19:25;;;;;;;2.42;2.22;;;32.00;53.20;;;;;;6242402;28;20056;-78
2023/09/04 12:22:28;;;;;;;3.28;2.03;;;31.80;53.40;;;;;;6249344;28;20050;-78
2023/09/04 12:25:35;;;;;;;2.22;1.98;;;31.50;53.70;;;;;;6248027;28;20053;-77
2023/09/04 12:28:37;;;;;;;3.30;1.90;;;31.50;53.50;;;;;;6249472;28;20423;-79
2023/09/04 12:31:41;;;;;;;2.85;1.70;;;31.40;53.40;;;;;;6252439;28;20077;-78
2023/09/04 12:34:43;;;;;;;1.85;1.50;;;31.60;53.10;;;;;;6248436;28;20058;-78
2023/09/04 12:37:45;;;;;;;1.80;1.60;;;31.70;53.00;;;;;;6249526;28;20053;-79
2023/09/04 12:40:47;;;;;;;2.10;1.65;;;31.90;52.80;;;;;;6250734;28;20049;-78
2023/09/04 12:43:49;;;;;;;2.17;1.73;;;31.90;52.50;;;;;;6248356;28;20048;-79
2023/09/04 12:46:52;;;;;;;5.00;2.17;;;32.10;51.80;;;;;;6250922;28;20048;-78
2023/09/04 12:49:53;;;;;;;2.90;2.55;;;32.30;51.30;;;;;;6251570;28;20050;-78
2023/09/04 12:52:55;;;;;;;4.57;2.33;;;32.20;51.00;;;;;;6252562;28;20052;-79
2023/09/04 12:55:57;;;;;;;2.17;1.80;;;32.30;50.50;;;;;;6251521;28;20045;-77
2023/09/04 12:58:58;;;;;;;2.67;1.90;;;32.30;50.40;;;;;;6249234;28;20354;-78
2023/09/04 13:02:01;;;;;;;3.50;2.10;;;32.60;50.30;;;;;;6254477;28;20041;-76
2023/09/04 13:05:04;;;;;;;2.42;2.10;;;32.80;49.70;;;;;;6257087;28;20492;-77
2023/09/04 13:08:06;;;;;;;2.60;1.90;;;32.60;49.00;;;;;;6256111;28;20048;-77
2023/09/04 13:11:08;;;;;;;2.55;1.63;;;32.30;49.00;;;;;;6257512;28;20049;-78
2023/09/04 13:14:10;;;;;;;2.17;1.80;;;32.20;49.40;;;;;;6256205;28;20393;-78
2023/09/04 13:17:13;;;;;;;3.63;1.63;;;32.30;49.40;;;;;;6255551;28;20277;-77
2023/09/04 13:20:15;;;;;;;2.67;2.40;;;32.50;49.20;;;;;;6254581;28;20045;-77
2023/09/04 13:23:16;;;;;;;2.38;1.80;;;32.50;49.60;;;;;;6257154;28;20068;-78
2023/09/04 13:26:19;;;;;;;2.92;2.10;;;32.80;49.40;;;;;;6257297;28;20539;-77
2023/09/04 13:29:21;;;;;;;2.38;2.17;;;33.00;49.00;;;;;;6257034;28;20100;-78
2023/09/04 13:32:24;;;;;;;2.00;1.67;;;33.00;48.70;;;;;;6257392;28;20045;-78
2023/09/04 13:35:26;;;;;;;4.07;2.13;;;33.10;48.50;;;;;;6256120;28;20113;-78
2023/09/04 13:38:28;;;;;;;2.72;1.88;;;33.20;48.60;;;;;;6254385;28;20049;-79
2023/09/04 13:41:30;;;;;;;2.50;2.10;;;33.20;48.00;;;;;;6255325;28;20053;-78
2023/09/04 13:44:32;;;;;;;3.35;2.58;;;33.10;47.80;;;;;;6253983;28;20144;-77
2023/09/04 13:47:35;;;;;;;4.80;2.25;;;32.90;47.80;;;;;;6250611;28;20063;-77
2023/09/04 13:50:36;;;;;;;3.38;2.28;;;33.00;48.00;;;;;;6251356;28;20515;-79
2023/09/04 13:53:38;;;;;;;3.55;2.35;;;32.90;47.60;;;;;;6249399;28;20390;-77
2023/09/04 13:56:42;;;;;;;10.52;2.33;;;32.70;47.50;;;;;;6248527;28;20060;-77
2023/09/04 13:59:43;;;;;;;1.55;1.45;;;32.60;47.40;;;;;;6247993;28;20061;-77
2023/09/04 14:02:46;;;;;;;2.60;1.75;;;32.60;47.30;;;;;;6249029;28;20550;-77
2023/09/04 14:05:50;;;;;;;2.25;2.00;;;32.70;47.10;;;;;;6248702;28;20172;-77
2023/09/04 14:08:52;;;;;;;2.40;2.17;;;32.90;46.80;;;;;;6247912;28;20049;-77
2023/09/04 14:11:54;;;;;;;3.25;1.67;;;32.80;46.70;;;;;;6249119;28;20231;-77
2023/09/04 14:14:57;;;;;;;4.78;2.28;;;32.80;46.60;;;;;;6248425;28;20060;-77
2023/09/04 14:18:00;;;;;;;3.13;1.92;;;32.80;46.30;;;;;;6247151;28;20038;-77
2023/09/04 14:21:02;;;;;;;4.60;1.73;;;33.10;46.30;;;;;;6248392;28;20046;-77
2023/09/04 14:24:04;;;;;;;3.35;1.77;;;33.40;46.30;;;;;;6248143;28;20048;-77
2023/09/04 14:27:05;;;;;;;2.03;1.48;;;33.70;46.20;;;;;;6249018;28;20049;-77
2023/09/04 14:30:08;;;;;;;2.08;1.85;;;34.00;45.70;;;;;;6247650;28;20056;-77
2023/09/04 14:33:11;;;;;;;2.00;1.88;;;34.30;44.90;;;;;;6249303;28;20057;-78
2023/09/04 14:36:13;;;;;;;3.13;2.40;;;34.20;44.70;;;;;;6251467;28;20071;-79
2023/09/04 14:39:15;;;;;;;4.13;2.05;;;34.10;44.50;;;;;;6250364;28;20105;-78
2023/09/04 14:42:17;;;;;;;2.53;1.83;;;34.40;44.50;;;;;;6249882;28;20068;-78
2023/09/04 14:45:19;;;;;;;2.67;2.40;;;34.50;44.20;;;;;;6249339;28;20057;-78
2023/09/04 14:48:22;;;;;;;2.22;1.50;;;34.40;43.60;;;;;;6246813;28;20037;-77
2023/09/04 14:51:24;;;;;;;4.13;1.85;;;34.10;43.20;;;;;;6247472;28;20365;-77
2023/09/04 14:54:26;;;;;;;4.15;1.77;;;33.80;43.30;;;;;;6247289;28;20042;-78
2023/09/04 14:57:28;;;;;;;3.28;2.03;;;33.80;43.20;;;;;;6248482;28;20046;-77
2023/09/04 15:00:30;;;;;;;2.47;1.90;;;33.90;43.10;;;;;;6249456;28;20408;-78
2023/09/04 15:03:33;;;;;;;3.58;1.88;;;33.80;42.60;;;;;;6249732;28;20053;-79
2023/09/04 15:06:35;;;;;;;1.98;1.65;;;33.70;42.50;;;;;;6248388;28;20368;-78
2023/09/04 15:09:36;;;;;;;4.25;1.98;;;33.60;42.40;;;;;;6247978;28;20053;-77
2023/09/04 15:12:38;;;;;;;2.47;1.73;;;33.60;42.50;;;;;;6249501;28;20049;-78
2023/09/04 15:15:40;;;;;;;2.70;1.77;;;33.10;42.60;;;;;;6248086;28;20049;-78
2023/09/04 15:18:43;;;;;;;2.42;1.88;;;32.80;42.80;;;;;;6248232;28;20055;-78
2023/09/04 15:21:44;;;;;;;6.43;1.70;;;32.40;42.60;;;;;;6248686;28;20477;-77
2023/09/04 15:24:46;;;;;;;1.67;1.48;;;32.10;43.00;;;;;;6248905;28;20627;-77
2023/09/04 15:27:48;;;;;;;2.97;2.33;;;31.80;42.80;;;;;;6248211;28;20041;-77
2023/09/04 15:30:49;;;;;;;2.65;1.65;;;31.60;43.00;;;;;;6250088;28;20046;-78
2023/09/04 15:33:52;;;;;;;3.22;2.10;;;31.40;43.20;;;;;;6251038;28;20049;-79
2023/09/04 15:36:54;;;;;;;1.95;1.60;;;31.10;43.00;;;;;;6251195;28;20057;-78
2023/09/04 15:39:56;;;;;;;4.25;2.25;;;30.90;42.90;;;;;;6248598;28;20523;-77
2023/09/04 15:42:57;;;;;;;2.35;2.05;;;30.70;42.90;;;;;;6250118;28;20049;-78
2023/09/04 15:46:01;;;;;;;2.92;1.88;;;30.50;43.30;;;;;;6248538;28;20056;-78
2023/09/04 15:49:05;;;;;;;2.65;1.58;;;30.40;43.40;;;;;;6247842;28;20057;-78